Weather reports worldwide

Advertisment
Monte S. Angelo, Italy (16258): temperature & dewpoint: 13.11.2019 18:00:00 - 19.11.2019 18:00:00 (CET)Monte S. Angelo, Italy (16258): wind speed: 13.11.2019 18:00:00 - 19.11.2019 18:00:00 (CET)Monte S. Angelo, Italy (16258): wind direction: 13.11.2019 18:00:00 - 19.11.2019 18:00:00 (CET)Monte S. Angelo, Italy (16258): visibility: 13.11.2019 18:00:00 - 19.11.2019 18:00:00 (CET)
Date & Time tt [°C] td [°C] ff [km/h] ff [kn] dd vv [km]
19.11.2019 18:00:00 9,6 9,6 15 8 SE -
19.11.2019 17:00:00 9,4 9,4 13 7 SE 10
19.11.2019 16:00:00 10,0 10,0 11 6 E 10
19.11.2019 15:00:00 10,0 10,0 9 5 E 10
19.11.2019 14:00:00 10,0 6,7 9 5 ESE 15
19.11.2019 13:00:00 10,4 4,1 11 6 SSE 15
19.11.2019 12:00:00 10,0 0,1 16 9 SSE 15
19.11.2019 11:00:00 9,6 -0,9 21 11 SSE 15
19.11.2019 10:00:00 9,4 -1,0 21 11 SSE 15
19.11.2019 09:00:00 9,0 3,6 16 9 SSE 15
19.11.2019 08:00:00 8,2 2,9 16 9 SE 15
19.11.2019 07:00:00 8,0 3,8 15 8 SE 15
19.11.2019 06:00:00 7,4 6,7 15 8 SSE -
19.11.2019 05:00:00 8,0 7,2 37 20 SE -
19.11.2019 04:00:00 8,4 7,7 18 10 SSE -
19.11.2019 03:00:00 8,4 7,7 22 12 SE -
19.11.2019 02:00:00 8,4 7,7 24 13 SSE -
19.11.2019 01:00:00 8,6 7,8 21 11 SSE -
19.11.2019 00:00:00 8,6 7,8 22 12 SSE -
18.11.2019 23:00:00 8,4 8,1 21 11 SSE -
18.11.2019 22:00:00 8,2 7,9 26 14 SSE -
18.11.2019 21:00:00 8,4 8,4 22 12 SSE 10
18.11.2019 20:00:00 9,0 8,5 26 14 SSE 10
18.11.2019 19:00:00 9,2 7,7 29 16 SE 10
18.11.2019 18:00:00 9,2 8,1 28 15 SE 10
18.11.2019 17:00:00 9,2 9,2 22 12 SE 10
18.11.2019 16:00:00 9,6 6,1 18 10 SSE 15
18.11.2019 15:00:00 10,4 5,8 16 9 SSE 15
18.11.2019 14:00:00 10,8 5,5 18 10 SSE 15
18.11.2019 13:00:00 10,6 5,6 15 8 SSE 15
18.11.2019 12:00:00 10,4 4,1 15 8 SSW 15
18.11.2019 11:00:00 10,0 2,6 11 6 S 15
18.11.2019 10:00:00 9,6 2,9 15 8 SSW 15
18.11.2019 09:00:00 8,6 2,4 26 14 SSW 15
18.11.2019 08:00:00 8,0 -0,2 28 15 SW 15
18.11.2019 07:00:00 7,0 -0,2 22 12 SW 15
18.11.2019 06:00:00 7,4 -0,3 22 12 WSW 15
18.11.2019 05:00:00 6,8 -0,2 26 14 WSW 15
18.11.2019 04:00:00 7,2 0,4 29 16 SW 15
18.11.2019 03:00:00 7,4 1,9 28 15 WSW 15
18.11.2019 02:00:00 7,2 0,6 28 15 SW 10
18.11.2019 01:00:00 7,0 6,1 28 15 SSW 10
18.11.2019 00:00:00 7,2 6,5 24 13 SSW -
17.11.2019 23:00:00 7,8 7,2 18 10 S -
17.11.2019 22:00:00 7,6 7,2 18 10 S -
17.11.2019 21:00:00 7,4 6,8 18 10 SSE -
17.11.2019 20:00:00 7,8 6,7 18 10 S 15
17.11.2019 19:00:00 7,0 6,7 16 9 S 15
17.11.2019 18:00:00 7,0 6,7 15 8 S 10
17.11.2019 17:00:00 7,0 6,7 18 10 S 10
17.11.2019 16:00:00 7,0 6,7 26 14 S 10
17.11.2019 15:00:00 7,0 6,7 37 20 SSW 10
17.11.2019 14:00:00 10,0 10,0 35 19 SW 10
17.11.2019 13:00:00 13,0 12,1 29 16 SSE 15
17.11.2019 12:00:00 13,0 -30,0 34 18 SSE -
17.11.2019 11:00:00 12,8 11,2 28 15 SSE 15
17.11.2019 10:00:00 12,8 11,2 29 16 SE 15
17.11.2019 09:00:00 12,2 10,6 31 17 SE 15
17.11.2019 08:00:00 11,8 10,7 28 15 SE 15
17.11.2019 07:00:00 11,4 10,5 29 16 SE 15
17.11.2019 06:00:00 11,4 10,6 22 12 SE 15
17.11.2019 05:00:00 11,4 10,3 24 13 SE 15
17.11.2019 04:00:00 11,0 10,2 31 17 SE 15
17.11.2019 03:00:00 11,0 10,2 29 16 SE 15
17.11.2019 02:00:00 10,8 10,0 24 13 SE 15
17.11.2019 01:00:00 11,6 11,1 26 14 SE 0,1
17.11.2019 00:00:00 11,8 11,4 29 16 SE -
16.11.2019 23:00:00 12,0 11,5 29 16 SE -
16.11.2019 22:00:00 11,8 11,2 28 15 SE 15
16.11.2019 21:00:00 11,4 11,1 28 15 SSE 15
16.11.2019 20:00:00 11,2 9,6 22 12 SE 15
16.11.2019 19:00:00 11,4 10,6 15 8 SE 10
16.11.2019 18:00:00 12,0 12,0 11 6 ESE -
16.11.2019 17:00:00 11,8 11,8 13 7 ESE 10
16.11.2019 16:00:00 12,4 12,4 15 8 SE 10
16.11.2019 15:00:00 12,2 12,2 21 11 ESE 10
16.11.2019 14:00:00 12,0 12,0 13 7 SE 10
16.11.2019 13:00:00 11,8 11,8 15 8 ESE 10
16.11.2019 12:00:00 12,6 7,3 18 10 SSE 10
16.11.2019 11:00:00 12,0 6,3 13 7 SSE 10
16.11.2019 10:00:00 11,8 6,5 18 10 SSE 10
16.11.2019 09:00:00 12,2 6,0 22 12 S 10
16.11.2019 08:00:00 11,4 7,7 26 14 SSE 12
16.11.2019 07:00:00 11,4 8,1 31 17 S 12
16.11.2019 06:00:00 11,8 7,5 31 17 SSE 10
16.11.2019 05:00:00 11,2 9,0 28 15 SSE 10
16.11.2019 04:00:00 11,4 8,8 9 5 SSE 10
16.11.2019 03:00:00 11,0 10,2 26 14 SSE 10
16.11.2019 02:00:00 11,0 8,9 28 15 S 10
16.11.2019 01:00:00 11,0 8,2 28 15 S 12
16.11.2019 00:00:00 11,2 8,2 29 16 S 12
15.11.2019 23:00:00 11,0 7,7 29 16 S 12
15.11.2019 22:00:00 10,2 7,4 26 14 SSE 12
15.11.2019 21:00:00 10,4 7,5 29 16 SSE 12
15.11.2019 20:00:00 10,6 6,9 29 16 SSE 15
15.11.2019 19:00:00 10,0 8,9 28 15 SE 0,1
15.11.2019 18:00:00 10,0 9,4 29 16 SE -
15.11.2019 17:00:00 11,0 10,4 31 17 SE 0,1
15.11.2019 16:00:00 11,0 10,5 28 15 SE -
15.11.2019 15:00:00 11,2 10,4 28 15 SSE 12
15.11.2019 14:00:00 11,0 9,4 24 13 SSE 15
15.11.2019 13:00:00 11,0 6,7 24 13 SSE 15
15.11.2019 12:00:00 11,0 5,3 21 11 SSE 15
15.11.2019 11:00:00 10,4 5,6 22 12 SSE 15
15.11.2019 10:00:00 9,8 6,5 22 12 SSE 15
15.11.2019 09:00:00 9,4 6,7 16 9 SSE 15
15.11.2019 08:00:00 8,4 6,9 16 9 SSE 0,1
15.11.2019 07:00:00 8,4 6,9 16 9 SE -
15.11.2019 06:00:00 8,2 7,0 16 9 SE -
15.11.2019 05:00:00 8,4 7,2 21 11 SSE -
15.11.2019 04:00:00 8,6 7,5 21 11 SSE -
15.11.2019 03:00:00 8,2 7,6 18 10 SSE -
15.11.2019 02:00:00 8,2 7,9 21 11 S 10
15.11.2019 01:00:00 8,0 8,0 16 9 SSE 10
15.11.2019 00:00:00 8,8 7,2 15 8 SSE 10
14.11.2019 23:00:00 8,4 8,1 15 8 SSE 10
14.11.2019 22:00:00 8,8 7,9 16 9 SSE 20
14.11.2019 21:00:00 9,2 6,6 15 8 SSE 15
14.11.2019 20:00:00 9,0 8,1 13 7 SE 15
14.11.2019 19:00:00 9,0 4,8 11 6 ESE 15
14.11.2019 18:00:00 9,0 4,6 15 8 SE 15
14.11.2019 17:00:00 9,2 2,5 13 7 ESE 20
14.11.2019 16:00:00 9,8 4,6 9 5 SSE 25
14.11.2019 15:00:00 9,6 5,2 11 6 SSE 20
14.11.2019 14:00:00 9,8 4,8 11 6 SE 20
14.11.2019 13:00:00 10,0 5,4 11 6 SSE 20
14.11.2019 12:00:00 9,2 4,8 11 6 SSE 20
14.11.2019 11:00:00 9,0 3,4 11 6 S 20
14.11.2019 10:00:00 9,4 4,6 8 4 S 15
14.11.2019 09:00:00 9,0 3,4 15 8 S 15
14.11.2019 08:00:00 8,4 3,7 11 6 S 15
14.11.2019 07:00:00 8,0 2,7 16 9 SSW 15
14.11.2019 06:00:00 8,2 3,7 11 6 WSW 15
14.11.2019 05:00:00 8,0 3,1 21 11 SW 15
14.11.2019 04:00:00 8,0 4,4 21 11 SSW 15
14.11.2019 03:00:00 - - - - - -
14.11.2019 02:00:00 7,8 5,9 18 10 SW 15
14.11.2019 01:00:00 7,4 5,5 28 15 SSW 15
14.11.2019 00:00:00 8,0 2,9 31 17 SW 15
13.11.2019 23:00:00 8,0 3,8 28 15 SSW 15
13.11.2019 22:00:00 8,0 3,8 35 19 SSW 15
13.11.2019 21:00:00 8,0 6,9 26 14 SSW 15
13.11.2019 20:00:00 8,2 6,0 29 16 SSW 12
13.11.2019 19:00:00 8,6 6,9 22 12 SSW 12
13.11.2019 18:00:00 10,2 10,0 16 9 S 10

tt = temperature
td = dewpoint
ff = wind speed
dd = wind direction
vv = visibility

Next stations